Time;durP1;ratioP1;P1;durP2;ratioP2;P2;SDS_P1;SDS_P2;PMS_P1;PMS_P2;Temp;Humidity;BMP_temperature;BMP_pressure;BME280_temperature;BME280_humidity;BME280_pressure;Samples;Min_cycle;Max_cycle;Signal;HPM_P1;HPM_P2
2021/07/16 00:01:24;;;;;;;;;;;20.30;65.50;;;;;;482360;246;2201;-43
2021/07/16 00:03:26;;;;;;;;;;;20.30;65.60;;;;;;482428;246;1067;-43
2021/07/16 00:05:27;;;;;;;;;;;20.30;65.60;;;;;;482472;246;1034;-43
2021/07/16 00:07:28;;;;;;;;;;;20.30;65.40;;;;;;482498;245;1352;-43
2021/07/16 00:09:29;;;;;;;;;;;20.30;65.50;;;;;;482419;246;1076;-43
2021/07/16 00:11:31;;;;;;;;;;;20.30;65.50;;;;;;482662;246;1116;-44
2021/07/16 00:13:32;;;;;;;;;;;20.30;65.60;;;;;;482513;246;1205;-44
2021/07/16 00:15:34;;;;;;;;;;;20.30;65.60;;;;;;482857;246;1062;-43
2021/07/16 00:17:35;;;;;;;;;;;20.30;65.60;;;;;;482326;246;2303;-43
2021/07/16 00:19:36;;;;;;;;;;;20.40;65.60;;;;;;482864;246;1114;-44
2021/07/16 00:21:37;;;;;;;;;;;20.30;65.60;;;;;;482314;246;2133;-43
2021/07/16 00:23:39;;;;;;;;;;;20.30;65.50;;;;;;482811;246;1113;-44
2021/07/16 00:25:40;;;;;;;;;;;20.30;65.50;;;;;;482773;246;1246;-43
2021/07/16 00:27:41;;;;;;;;;;;20.30;65.50;;;;;;482651;246;1144;-43
2021/07/16 00:29:43;;;;;;;;;;;20.30;65.60;;;;;;482940;246;1049;-44
2021/07/16 00:31:44;;;;;;;;;;;20.40;65.50;;;;;;482645;246;1121;-44
2021/07/16 00:33:45;;;;;;;;;;;20.30;65.60;;;;;;482402;246;1083;-44
2021/07/16 00:35:47;;;;;;;;;;;20.30;65.60;;;;;;482780;246;1368;-43
2021/07/16 00:37:48;;;;;;;;;;;20.30;65.60;;;;;;482400;246;1054;-44
2021/07/16 00:39:49;;;;;;;;;;;20.30;65.60;;;;;;482678;246;1132;-44
2021/07/16 00:41:50;;;;;;;;;;;20.30;65.60;;;;;;482774;246;2154;-43
2021/07/16 00:43:52;;;;;;;;;;;20.30;65.70;;;;;;482462;246;1199;-44
2021/07/16 00:45:53;;;;;;;;;;;20.30;65.60;;;;;;482806;246;1302;-43
2021/07/16 00:47:54;;;;;;;;;;;20.30;65.60;;;;;;482460;246;1214;-43
2021/07/16 00:49:56;;;;;;;;;;;20.30;65.60;;;;;;482433;246;1096;-44
2021/07/16 00:51:57;;;;;;;;;;;20.40;65.60;;;;;;482647;246;1502;-43
2021/07/16 00:53:58;;;;;;;;;;;20.40;65.60;;;;;;482861;246;1216;-44
2021/07/16 00:56:00;;;;;;;;;;;20.30;65.60;;;;;;482814;246;1186;-44
2021/07/16 00:58:01;;;;;;;;;;;20.30;65.60;;;;;;482613;246;1249;-43
2021/07/16 01:00:02;;;;;;;;;;;20.30;65.60;;;;;;482878;246;1067;-43
2021/07/16 01:02:04;;;;;;;;;;;20.30;65.60;;;;;;482322;246;2197;-44
2021/07/16 01:04:05;;;;;;;;;;;20.30;65.60;;;;;;482447;246;1058;-43
2021/07/16 01:06:06;;;;;;;;;;;20.30;65.70;;;;;;482383;246;1254;-44
2021/07/16 01:08:08;;;;;;;;;;;20.30;65.70;;;;;;482401;246;1385;-44
2021/07/16 01:10:09;;;;;;;;;;;20.30;65.70;;;;;;482881;246;1085;-43
2021/07/16 01:12:10;;;;;;;;;;;20.30;65.60;;;;;;482759;246;1329;-44
2021/07/16 01:14:12;;;;;;;;;;;20.30;65.70;;;;;;482445;246;1199;-44
2021/07/16 01:16:13;;;;;;;;;;;20.30;65.60;;;;;;482719;246;1156;-44
2021/07/16 01:18:14;;;;;;;;;;;20.30;65.60;;;;;;482575;246;1289;-44
2021/07/16 01:20:16;;;;;;;;;;;20.30;65.70;;;;;;482792;246;1234;-44
2021/07/16 01:22:17;;;;;;;;;;;20.30;65.70;;;;;;482430;246;2126;-44
2021/07/16 01:24:18;;;;;;;;;;;20.30;65.50;;;;;;482623;246;1078;-44
2021/07/16 01:26:19;;;;;;;;;;;20.30;65.50;;;;;;482663;246;1410;-43
2021/07/16 01:28:21;;;;;;;;;;;20.30;65.50;;;;;;482683;246;1145;-43
2021/07/16 01:30:22;;;;;;;;;;;20.30;65.50;;;;;;482888;246;1160;-44
2021/07/16 01:32:23;;;;;;;;;;;20.30;65.60;;;;;;482371;246;1324;-44
2021/07/16 01:34:25;;;;;;;;;;;20.30;65.70;;;;;;482846;246;1027;-44
2021/07/16 01:36:26;;;;;;;;;;;20.30;65.60;;;;;;482484;246;1466;-43
2021/07/16 01:38:27;;;;;;;;;;;20.30;65.60;;;;;;482642;246;1203;-44
2021/07/16 01:40:32;;;;;;;;;;;20.30;65.60;;;;;;482421;246;2205;-44
2021/07/16 01:42:30;;;;;;;;;;;20.30;65.50;;;;;;482150;247;2168;-44
2021/07/16 01:44:31;;;;;;;;;;;20.30;65.50;;;;;;482503;246;1193;-43
2021/07/16 01:46:33;;;;;;;;;;;20.40;65.60;;;;;;482644;246;1950;-44
2021/07/16 01:48:35;;;;;;;;;;;20.30;65.60;;;;;;482461;246;1084;-44
2021/07/16 01:50:35;;;;;;;;;;;20.30;65.70;;;;;;482454;246;2393;-43
2021/07/16 01:52:37;;;;;;;;;;;20.30;65.70;;;;;;482878;246;1037;-44
2021/07/16 01:54:38;;;;;;;;;;;20.30;65.70;;;;;;482881;246;1057;-43
2021/07/16 01:56:39;;;;;;;;;;;20.30;65.60;;;;;;482732;246;1053;-43
2021/07/16 01:58:41;;;;;;;;;;;20.30;65.60;;;;;;482673;246;1350;-43
2021/07/16 02:00:42;;;;;;;;;;;20.30;65.60;;;;;;482492;246;2145;-43
2021/07/16 02:02:43;;;;;;;;;;;20.30;65.60;;;;;;482689;246;1257;-44
2021/07/16 02:04:45;;;;;;;;;;;20.30;65.60;;;;;;482727;246;1069;-43
2021/07/16 02:06:46;;;;;;;;;;;20.30;65.60;;;;;;482608;246;1167;-44
2021/07/16 02:08:47;;;;;;;;;;;20.30;65.60;;;;;;482520;246;1064;-43
2021/07/16 02:10:49;;;;;;;;;;;20.30;65.60;;;;;;482827;246;1301;-43
2021/07/16 02:12:50;;;;;;;;;;;20.30;65.70;;;;;;482696;246;1259;-43
2021/07/16 02:14:51;;;;;;;;;;;20.30;65.60;;;;;;482476;246;1196;-43
2021/07/16 02:16:54;;;;;;;;;;;20.30;65.60;;;;;;482477;246;1191;-44
2021/07/16 02:18:54;;;;;;;;;;;20.30;65.60;;;;;;482322;247;2103;-43
2021/07/16 02:20:55;;;;;;;;;;;20.40;65.60;;;;;;482369;246;2146;-43
2021/07/16 02:22:56;;;;;;;;;;;20.30;65.60;;;;;;482331;246;1191;-44
2021/07/16 02:24:58;;;;;;;;;;;20.30;65.60;;;;;;482406;246;1098;-44
2021/07/16 02:26:59;;;;;;;;;;;20.30;65.60;;;;;;482850;246;1070;-43
2021/07/16 02:29:01;;;;;;;;;;;20.30;65.50;;;;;;482729;246;1080;-44
2021/07/16 02:31:02;;;;;;;;;;;20.30;65.50;;;;;;482852;246;1142;-44
2021/07/16 02:33:03;;;;;;;;;;;20.30;65.60;;;;;;482416;246;1055;-43
2021/07/16 02:35:04;;;;;;;;;;;20.30;65.60;;;;;;482798;246;1196;-43
2021/07/16 02:37:06;;;;;;;;;;;20.30;65.50;;;;;;482398;246;1107;-44
2021/07/16 02:39:07;;;;;;;;;;;20.30;65.50;;;;;;482362;246;1199;-43
2021/07/16 02:41:08;;;;;;;;;;;20.30;65.50;;;;;;482824;246;2137;-44
2021/07/16 02:43:10;;;;;;;;;;;20.30;65.60;;;;;;482709;246;1335;-44
2021/07/16 02:45:11;;;;;;;;;;;20.30;65.60;;;;;;482556;246;1110;-43
2021/07/16 02:47:12;;;;;;;;;;;20.30;65.60;;;;;;482785;246;1340;-43
2021/07/16 02:49:14;;;;;;;;;;;20.30;65.60;;;;;;482878;246;1063;-44
2021/07/16 02:51:15;;;;;;;;;;;20.30;65.60;;;;;;482418;246;1187;-43
2021/07/16 02:53:16;;;;;;;;;;;20.30;65.70;;;;;;482853;246;1211;-44
2021/07/16 02:55:18;;;;;;;;;;;20.30;65.60;;;;;;482411;246;1115;-43
2021/07/16 02:57:19;;;;;;;;;;;20.30;65.60;;;;;;482363;246;1236;-44
2021/07/16 02:59:20;;;;;;;;;;;20.30;65.60;;;;;;482389;246;1260;-43
2021/07/16 03:01:21;;;;;;;;;;;20.30;65.60;;;;;;482390;246;2129;-43
2021/07/16 03:03:23;;;;;;;;;;;20.30;65.50;;;;;;482872;246;1140;-44
2021/07/16 03:05:24;;;;;;;;;;;20.30;65.50;;;;;;482835;246;1066;-43
2021/07/16 03:07:26;;;;;;;;;;;20.30;65.50;;;;;;482790;246;1387;-43
2021/07/16 03:09:30;;;;;;;;;;;20.30;65.50;;;;;;482645;246;1102;-43
2021/07/16 03:11:28;;;;;;;;;;;20.30;65.50;;;;;;482465;246;1865;-43
2021/07/16 03:13:30;;;;;;;;;;;20.30;65.60;;;;;;482853;246;1565;-43
2021/07/16 03:15:31;;;;;;;;;;;20.30;65.60;;;;;;482488;246;1195;-44
2021/07/16 03:17:32;;;;;;;;;;;20.30;65.70;;;;;;482863;246;1511;-43
2021/07/16 03:19:34;;;;;;;;;;;20.30;65.60;;;;;;482896;246;1074;-43
2021/07/16 03:21:35;;;;;;;;;;;20.30;65.70;;;;;;482858;246;2134;-44
2021/07/16 03:23:36;;;;;;;;;;;20.30;65.70;;;;;;482820;246;1279;-43
2021/07/16 03:25:38;;;;;;;;;;;20.30;65.70;;;;;;482883;246;1072;-43
2021/07/16 03:27:39;;;;;;;;;;;20.30;65.70;;;;;;482287;246;1334;-43
2021/07/16 03:29:40;;;;;;;;;;;20.30;65.70;;;;;;482745;246;1097;-43
2021/07/16 03:31:42;;;;;;;;;;;20.30;65.70;;;;;;482452;246;1255;-43
2021/07/16 03:33:43;;;;;;;;;;;20.30;65.70;;;;;;482727;246;1168;-43
2021/07/16 03:35:44;;;;;;;;;;;20.20;65.60;;;;;;482463;246;1320;-43
2021/07/16 03:37:46;;;;;;;;;;;20.30;65.50;;;;;;482759;246;1211;-43
2021/07/16 03:39:50;;;;;;;;;;;20.30;65.60;;;;;;482408;246;1104;-43
2021/07/16 03:41:48;;;;;;;;;;;20.30;65.60;;;;;;482458;246;2133;-43
2021/07/16 03:43:50;;;;;;;;;;;20.30;65.60;;;;;;482562;246;1046;-43
2021/07/16 03:45:51;;;;;;;;;;;20.30;65.60;;;;;;482408;246;1327;-43
2021/07/16 03:47:52;;;;;;;;;;;20.30;65.60;;;;;;482433;246;1301;-44
2021/07/16 03:49:54;;;;;;;;;;;20.30;65.60;;;;;;482857;246;1053;-44
2021/07/16 03:51:55;;;;;;;;;;;20.30;65.60;;;;;;482484;246;1199;-44
2021/07/16 03:53:56;;;;;;;;;;;20.30;65.50;;;;;;482506;246;1170;-43
2021/07/16 03:55:57;;;;;;;;;;;20.30;65.40;;;;;;482608;246;1199;-43
2021/07/16 03:57:59;;;;;;;;;;;20.30;65.50;;;;;;482454;246;1164;-44
2021/07/16 04:00:02;;;;;;;;;;;20.30;65.50;;;;;;482735;246;1242;-43
2021/07/16 04:02:02;;;;;;;;;;;20.30;65.50;;;;;;482494;246;2185;-44
2021/07/16 04:04:04;;;;;;;;;;;20.30;65.60;;;;;;482851;246;1240;-44
2021/07/16 04:06:05;;;;;;;;;;;20.30;65.60;;;;;;482496;246;1167;-43
2021/07/16 04:08:07;;;;;;;;;;;20.30;65.50;;;;;;482441;246;1253;-43
2021/07/16 04:10:08;;;;;;;;;;;20.30;65.60;;;;;;482861;246;1040;-43
2021/07/16 04:12:09;;;;;;;;;;;20.30;65.70;;;;;;482451;246;1146;-44
2021/07/16 04:14:11;;;;;;;;;;;20.30;65.60;;;;;;482469;246;1133;-43
2021/07/16 04:16:12;;;;;;;;;;;20.30;65.60;;;;;;482169;246;1329;-43
2021/07/16 04:18:13;;;;;;;;;;;20.30;65.50;;;;;;482350;246;1331;-44
2021/07/16 04:20:15;;;;;;;;;;;20.30;65.40;;;;;;482316;246;1482;-43
2021/07/16 04:22:16;;;;;;;;;;;20.30;65.60;;;;;;482268;246;2142;-43
2021/07/16 04:24:17;;;;;;;;;;;20.30;65.50;;;;;;482362;246;1504;-44
2021/07/16 04:26:18;;;;;;;;;;;20.30;65.60;;;;;;482375;246;1081;-44
2021/07/16 04:28:20;;;;;;;;;;;20.30;65.60;;;;;;482548;246;1070;-44
2021/07/16 04:30:21;;;;;;;;;;;20.30;65.60;;;;;;482376;246;1153;-44
2021/07/16 04:32:22;;;;;;;;;;;20.30;65.60;;;;;;482470;246;1270;-43
2021/07/16 04:34:24;;;;;;;;;;;20.30;65.70;;;;;;482777;246;1122;-43
2021/07/16 04:36:25;;;;;;;;;;;20.30;65.60;;;;;;482223;246;1156;-43
2021/07/16 04:38:26;;;;;;;;;;;20.30;65.60;;;;;;482238;246;1241;-43
2021/07/16 04:40:28;;;;;;;;;;;20.30;65.70;;;;;;482231;246;1140;-43
2021/07/16 04:42:29;;;;;;;;;;;20.30;65.70;;;;;;482296;246;2252;-43
2021/07/16 04:44:31;;;;;;;;;;;20.30;65.70;;;;;;482416;246;1072;-44
2021/07/16 04:46:32;;;;;;;;;;;20.30;65.70;;;;;;482245;246;1247;-43
2021/07/16 04:48:33;;;;;;;;;;;20.30;65.60;;;;;;482607;246;1080;-44
2021/07/16 04:50:35;;;;;;;;;;;20.30;65.50;;;;;;482302;246;1115;-43
2021/07/16 04:52:36;;;;;;;;;;;20.30;65.50;;;;;;482462;246;1444;-43
2021/07/16 04:54:37;;;;;;;;;;;20.30;65.40;;;;;;482479;246;1102;-43
2021/07/16 04:56:39;;;;;;;;;;;20.30;65.50;;;;;;482530;246;1098;-43
2021/07/16 04:58:40;;;;;;;;;;;20.30;65.60;;;;;;482338;246;1071;-43
2021/07/16 05:00:41;;;;;;;;;;;20.30;65.70;;;;;;482310;246;1170;-44
2021/07/16 05:02:43;;;;;;;;;;;20.30;65.70;;;;;;482345;246;2203;-44
2021/07/16 05:04:44;;;;;;;;;;;20.30;65.60;;;;;;482826;246;1157;-43
2021/07/16 05:06:45;;;;;;;;;;;20.30;65.40;;;;;;482486;246;1170;-44
2021/07/16 05:08:46;;;;;;;;;;;20.30;65.40;;;;;;482416;246;1117;-43
2021/07/16 05:10:48;;;;;;;;;;;20.30;65.50;;;;;;482203;246;1071;-44
2021/07/16 05:12:49;;;;;;;;;;;20.30;65.50;;;;;;482393;246;1065;-44
2021/07/16 05:14:50;;;;;;;;;;;20.30;65.50;;;;;;482349;246;1180;-43
2021/07/16 05:16:52;;;;;;;;;;;20.30;65.60;;;;;;482324;246;1159;-44
2021/07/16 05:18:53;;;;;;;;;;;20.30;65.60;;;;;;482180;246;1173;-43
2021/07/16 05:20:54;;;;;;;;;;;20.30;65.60;;;;;;482167;246;1471;-43
2021/07/16 05:22:56;;;;;;;;;;;20.30;65.50;;;;;;482435;246;2146;-44
2021/07/16 05:24:57;;;;;;;;;;;20.30;65.60;;;;;;482360;246;1115;-44
2021/07/16 05:26:58;;;;;;;;;;;20.30;65.60;;;;;;482168;246;1346;-43
2021/07/16 05:29:00;;;;;;;;;;;20.30;65.60;;;;;;482635;246;1129;-44
2021/07/16 05:31:01;;;;;;;;;;;20.30;65.60;;;;;;482424;246;1405;-43
2021/07/16 05:33:03;;;;;;;;;;;20.30;65.70;;;;;;482382;246;1040;-43
2021/07/16 05:35:04;;;;;;;;;;;20.30;65.60;;;;;;482139;246;1055;-44
2021/07/16 05:37:05;;;;;;;;;;;20.30;65.60;;;;;;482106;246;1273;-43
2021/07/16 05:39:07;;;;;;;;;;;20.30;65.50;;;;;;482184;246;1058;-44
2021/07/16 05:41:08;;;;;;;;;;;20.30;65.50;;;;;;482283;246;1174;-44
2021/07/16 05:43:09;;;;;;;;;;;20.30;65.60;;;;;;482388;246;2145;-44
2021/07/16 05:45:11;;;;;;;;;;;20.30;65.60;;;;;;482432;246;1084;-44
2021/07/16 05:47:12;;;;;;;;;;;20.30;65.60;;;;;;481936;246;1401;-44
2021/07/16 05:49:13;;;;;;;;;;;20.30;65.60;;;;;;482104;246;1114;-44
2021/07/16 05:51:15;;;;;;;;;;;20.30;65.60;;;;;;481983;246;1152;-43
2021/07/16 05:53:16;;;;;;;;;;;20.30;65.80;;;;;;482082;246;1134;-44
2021/07/16 05:55:17;;;;;;;;;;;20.30;65.70;;;;;;482113;246;1130;-43
2021/07/16 05:57:18;;;;;;;;;;;20.30;65.70;;;;;;482156;246;1246;-44
2021/07/16 05:59:20;;;;;;;;;;;20.30;65.70;;;;;;482033;246;1161;-43
2021/07/16 06:01:21;;;;;;;;;;;20.30;65.70;;;;;;481987;246;1547;-43
2021/07/16 06:03:23;;;;;;;;;;;20.30;65.60;;;;;;482128;246;2130;-43
2021/07/16 06:05:24;;;;;;;;;;;20.30;65.60;;;;;;482402;246;1375;-43
2021/07/16 06:07:25;;;;;;;;;;;20.30;65.60;;;;;;482062;246;1196;-43
2021/07/16 06:09:27;;;;;;;;;;;20.30;65.60;;;;;;482235;246;1078;-43
2021/07/16 06:11:28;;;;;;;;;;;20.30;65.70;;;;;;482102;246;1358;-43
2021/07/16 06:13:29;;;;;;;;;;;20.30;65.70;;;;;;481960;246;1142;-43
2021/07/16 06:15:30;;;;;;;;;;;20.30;65.80;;;;;;481894;246;1148;-44
2021/07/16 06:17:32;;;;;;;;;;;20.30;65.70;;;;;;481932;246;1160;-44
2021/07/16 06:19:34;;;;;;;;;;;20.30;65.60;;;;;;482238;246;1083;-43
2021/07/16 06:21:35;;;;;;;;;;;20.30;65.50;;;;;;481974;246;1214;-43
2021/07/16 06:23:36;;;;;;;;;;;20.30;65.50;;;;;;481871;246;2157;-43
2021/07/16 06:25:38;;;;;;;;;;;20.30;65.60;;;;;;482049;246;1652;-43
2021/07/16 06:27:39;;;;;;;;;;;20.30;65.60;;;;;;481804;246;1198;-44
2021/07/16 06:29:42;;;;;;;;;;;20.30;65.60;;;;;;482141;246;1085;-43
2021/07/16 06:31:43;;;;;;;;;;;20.30;65.70;;;;;;481858;246;1357;-43
2021/07/16 06:33:45;;;;;;;;;;;20.30;65.70;;;;;;482046;246;1065;-43
2021/07/16 06:35:46;;;;;;;;;;;20.30;65.70;;;;;;482047;246;1264;-43
2021/07/16 06:37:47;;;;;;;;;;;20.30;65.60;;;;;;481850;246;1170;-43
2021/07/16 06:39:48;;;;;;;;;;;20.30;65.60;;;;;;481890;246;1095;-43
2021/07/16 06:41:50;;;;;;;;;;;20.30;65.70;;;;;;481984;246;1180;-43
2021/07/16 06:43:51;;;;;;;;;;;20.30;65.70;;;;;;481934;246;2189;-43
2021/07/16 06:45:52;;;;;;;;;;;20.30;65.60;;;;;;481983;246;1416;-43
2021/07/16 06:47:54;;;;;;;;;;;20.30;65.60;;;;;;481882;246;1159;-43
2021/07/16 06:49:55;;;;;;;;;;;20.30;65.60;;;;;;482091;246;1083;-43
2021/07/16 06:51:56;;;;;;;;;;;20.30;65.50;;;;;;481994;246;1311;-43
2021/07/16 06:53:58;;;;;;;;;;;20.30;65.60;;;;;;481820;246;1571;-43
2021/07/16 06:55:59;;;;;;;;;;;20.30;65.60;;;;;;481711;246;1223;-44
2021/07/16 06:58:00;;;;;;;;;;;20.20;65.60;;;;;;481722;246;1152;-43
2021/07/16 07:00:02;;;;;;;;;;;20.30;65.60;;;;;;481651;246;1104;-44
2021/07/16 07:02:03;;;;;;;;;;;20.30;65.60;;;;;;481322;246;1221;-43
2021/07/16 07:04:04;;;;;;;;;;;20.30;65.70;;;;;;481476;246;2192;-43
2021/07/16 07:06:07;;;;;;;;;;;20.30;65.60;;;;;;481712;246;1068;-43
2021/07/16 07:08:07;;;;;;;;;;;20.30;65.60;;;;;;481606;246;1877;-43
2021/07/16 07:10:09;;;;;;;;;;;20.30;65.60;;;;;;481717;246;1190;-44
2021/07/16 07:12:10;;;;;;;;;;;20.30;65.60;;;;;;481805;246;2155;-44
2021/07/16 07:14:11;;;;;;;;;;;20.30;65.70;;;;;;481744;246;1120;-43
2021/07/16 07:16:16;;;;;;;;;;;20.30;65.60;;;;;;481686;246;1073;-43
2021/07/16 07:18:14;;;;;;;;;;;20.30;65.60;;;;;;481634;247;2226;-43
2021/07/16 07:20:16;;;;;;;;;;;20.30;65.70;;;;;;481960;246;1112;-43
2021/07/16 07:22:17;;;;;;;;;;;20.30;65.60;;;;;;481562;246;1356;-43
2021/07/16 07:24:18;;;;;;;;;;;20.30;65.60;;;;;;481697;246;2184;-43
2021/07/16 07:26:20;;;;;;;;;;;20.30;65.60;;;;;;481650;246;1323;-44
2021/07/16 07:28:21;;;;;;;;;;;20.30;65.60;;;;;;481727;246;1258;-43
2021/07/16 07:30:22;;;;;;;;;;;20.30;65.70;;;;;;481742;246;1183;-44
2021/07/16 07:32:23;;;;;;;;;;;20.30;65.70;;;;;;481777;246;1106;-43
2021/07/16 07:34:25;;;;;;;;;;;20.30;65.70;;;;;;481754;246;1235;-43
2021/07/16 07:36:26;;;;;;;;;;;20.30;65.70;;;;;;481700;246;1205;-43
2021/07/16 07:38:31;;;;;;;;;;;20.30;65.60;;;;;;481654;246;1302;-43
2021/07/16 07:40:29;;;;;;;;;;;20.30;65.60;;;;;;481415;246;2120;-43
2021/07/16 07:42:31;;;;;;;;;;;20.30;65.60;;;;;;481631;246;1477;-43
2021/07/16 07:44:31;;;;;;;;;;;20.30;65.60;;;;;;481855;246;2185;-43
2021/07/16 07:46:33;;;;;;;;;;;20.30;65.60;;;;;;481457;246;1341;-44
2021/07/16 07:48:34;;;;;;;;;;;20.30;65.60;;;;;;481065;246;1146;-44
2021/07/16 07:50:35;;;;;;;;;;;20.30;65.60;;;;;;481047;246;1308;-43
2021/07/16 07:52:37;;;;;;;;;;;20.30;65.60;;;;;;481135;246;1139;-43
2021/07/16 07:54:38;;;;;;;;;;;20.30;65.60;;;;;;481187;246;1210;-43
2021/07/16 07:56:40;;;;;;;;;;;20.30;65.60;;;;;;481510;246;1154;-44
2021/07/16 07:58:41;;;;;;;;;;;20.30;65.60;;;;;;481449;246;1217;-44
2021/07/16 08:00:42;;;;;;;;;;;20.30;65.40;;;;;;481681;246;1329;-43
2021/07/16 08:02:44;;;;;;;;;;;20.30;65.50;;;;;;481439;246;2193;-43
2021/07/16 08:04:45;;;;;;;;;;;20.30;65.60;;;;;;481477;246;1150;-44
2021/07/16 08:06:46;;;;;;;;;;;20.30;65.50;;;;;;481448;246;1247;-43
2021/07/16 08:08:48;;;;;;;;;;;20.30;65.40;;;;;;481606;246;1141;-44
2021/07/16 08:10:49;;;;;;;;;;;20.30;65.60;;;;;;481499;246;1363;-43
2021/07/16 08:12:50;;;;;;;;;;;20.30;65.60;;;;;;481656;246;1193;-43
2021/07/16 08:14:52;;;;;;;;;;;20.30;65.60;;;;;;481376;246;1255;-44
2021/07/16 08:16:53;;;;;;;;;;;20.30;65.70;;;;;;481337;246;1305;-43
2021/07/16 08:18:54;;;;;;;;;;;20.30;65.70;;;;;;481407;246;1519;-44
2021/07/16 08:20:56;;;;;;;;;;;20.30;65.70;;;;;;481371;246;1361;-43
2021/07/16 08:22:57;;;;;;;;;;;20.30;65.80;;;;;;482127;246;2199;-43
2021/07/16 08:24:58;;;;;;;;;;;20.30;65.70;;;;;;481693;246;874;-44
2021/07/16 08:27:00;;;;;;;;;;;20.30;65.60;;;;;;481852;246;1182;-43
2021/07/16 08:29:01;;;;;;;;;;;20.30;65.50;;;;;;482393;246;1055;-44
2021/07/16 08:31:02;;;;;;;;;;;20.30;65.60;;;;;;481903;246;1452;-43
2021/07/16 08:33:04;;;;;;;;;;;20.30;65.60;;;;;;481788;246;1061;-44
2021/07/16 08:35:05;;;;;;;;;;;20.30;65.60;;;;;;481730;246;1113;-43
2021/07/16 08:37:06;;;;;;;;;;;20.30;65.50;;;;;;481833;246;1301;-44
2021/07/16 08:39:08;;;;;;;;;;;20.30;65.50;;;;;;481941;246;1438;-43
2021/07/16 08:41:09;;;;;;;;;;;20.30;65.50;;;;;;481844;246;1154;-43
2021/07/16 08:43:10;;;;;;;;;;;20.30;65.50;;;;;;482374;246;2184;-43
2021/07/16 08:45:12;;;;;;;;;;;20.30;65.60;;;;;;482414;246;843;-44
2021/07/16 08:47:13;;;;;;;;;;;20.30;65.60;;;;;;481949;246;1081;-43
2021/07/16 08:49:14;;;;;;;;;;;20.30;65.70;;;;;;482379;246;1136;-43
2021/07/16 08:51:16;;;;;;;;;;;20.30;65.70;;;;;;482412;246;1127;-43
2021/07/16 08:53:17;;;;;;;;;;;20.30;65.60;;;;;;482329;246;1058;-44
2021/07/16 08:55:19;;;;;;;;;;;20.30;65.60;;;;;;481668;246;1152;-43
2021/07/16 08:57:22;;;;;;;;;;;20.30;65.50;;;;;;481853;246;2156;-43
2021/07/16 08:59:21;;;;;;;;;;;20.30;65.50;;;;;;481683;247;2144;-44
2021/07/16 09:01:23;;;;;;;;;;;20.30;65.60;;;;;;482303;246;1239;-44
2021/07/16 09:03:24;;;;;;;;;;;20.30;65.60;;;;;;482349;246;2189;-44
2021/07/16 09:05:25;;;;;;;;;;;20.30;65.40;;;;;;481697;246;1165;-43
2021/07/16 09:07:26;;;;;;;;;;;20.30;65.60;;;;;;482235;246;1279;-44
2021/07/16 09:09:31;;;;;;;;;;;20.30;65.60;;;;;;481823;246;853;-43
2021/07/16 09:11:29;;;;;;;;;;;20.30;65.60;;;;;;481466;247;1946;-44
2021/07/16 09:13:30;;;;;;;;;;;20.30;65.50;;;;;;481781;246;1139;-43
2021/07/16 09:15:32;;;;;;;;;;;20.30;65.50;;;;;;482267;246;979;-43
2021/07/16 09:17:34;;;;;;;;;;;20.30;65.40;;;;;;481744;246;1125;-44
2021/07/16 09:19:34;;;;;;;;;;;20.30;65.50;;;;;;481759;246;2336;-44
2021/07/16 09:21:36;;;;;;;;;;;20.30;65.70;;;;;;481862;246;874;-43
2021/07/16 09:23:37;;;;;;;;;;;20.30;65.60;;;;;;482377;246;2200;-43
2021/07/16 09:25:38;;;;;;;;;;;20.30;65.60;;;;;;481874;246;1260;-43
2021/07/16 09:27:40;;;;;;;;;;;20.30;65.70;;;;;;481877;246;864;-44
2021/07/16 09:29:41;;;;;;;;;;;20.20;65.70;;;;;;482320;246;1063;-44
2021/07/16 09:31:42;;;;;;;;;;;20.20;65.70;;;;;;482285;246;1349;-43
2021/07/16 09:33:44;;;;;;;;;;;20.30;65.60;;;;;;482366;246;1165;-44
2021/07/16 09:35:45;;;;;;;;;;;20.30;65.60;;;;;;481802;246;1062;-43
2021/07/16 09:37:46;;;;;;;;;;;20.30;65.60;;;;;;482285;246;1019;-44
2021/07/16 09:39:48;;;;;;;;;;;20.30;65.50;;;;;;482280;246;1016;-44
2021/07/16 09:41:51;;;;;;;;;;;20.30;65.50;;;;;;481510;246;1264;-43
2021/07/16 09:43:51;;;;;;;;;;;20.30;65.60;;;;;;481449;246;2181;-44
2021/07/16 09:45:52;;;;;;;;;;;20.30;65.60;;;;;;481919;246;1363;-44
2021/07/16 09:47:54;;;;;;;;;;;20.30;65.60;;;;;;481848;246;1318;-44
2021/07/16 09:49:55;;;;;;;;;;;20.30;65.60;;;;;;481537;246;1236;-44
2021/07/16 09:51:56;;;;;;;;;;;20.30;65.70;;;;;;481849;246;1309;-43
2021/07/16 09:53:59;;;;;;;;;;;20.30;65.60;;;;;;481986;246;792;-43
2021/07/16 09:55:59;;;;;;;;;;;20.30;65.50;;;;;;481962;246;2118;-44
2021/07/16 09:58:00;;;;;;;;;;;20.30;65.50;;;;;;481683;246;1057;-43
2021/07/16 10:00:02;;;;;;;;;;;20.30;65.50;;;;;;481643;246;742;-43
2021/07/16 10:02:03;;;;;;;;;;;20.30;65.50;;;;;;481423;246;1062;-44
2021/07/16 10:04:04;;;;;;;;;;;20.30;65.60;;;;;;481646;246;2209;-43
2021/07/16 10:06:06;;;;;;;;;;;20.30;65.70;;;;;;481386;246;1091;-43
2021/07/16 10:08:08;;;;;;;;;;;20.30;65.60;;;;;;482180;246;1047;-43
2021/07/16 10:10:08;;;;;;;;;;;20.30;65.60;;;;;;482057;246;2174;-43
2021/07/16 10:12:10;;;;;;;;;;;20.30;65.40;;;;;;481602;246;1036;-43
2021/07/16 10:14:12;;;;;;;;;;;20.30;65.50;;;;;;482064;246;765;-44
2021/07/16 10:16:12;;;;;;;;;;;20.30;65.60;;;;;;481870;246;1929;-43
2021/07/16 10:18:14;;;;;;;;;;;20.30;65.50;;;;;;481629;246;1019;-44
2021/07/16 10:20:15;;;;;;;;;;;20.30;65.60;;;;;;481710;246;1092;-44
2021/07/16 10:22:16;;;;;;;;;;;20.30;65.60;;;;;;481955;246;1207;-43
2021/07/16 10:24:17;;;;;;;;;;;20.30;65.50;;;;;;481955;246;2197;-43
2021/07/16 10:26:19;;;;;;;;;;;20.30;65.60;;;;;;481878;246;1137;-44
2021/07/16 10:28:20;;;;;;;;;;;20.30;65.70;;;;;;482379;246;1096;-44
2021/07/16 10:30:25;;;;;;;;;;;20.30;65.60;;;;;;481855;246;1360;-43
2021/07/16 10:32:23;;;;;;;;;;;20.30;65.60;;;;;;482140;246;1362;-44
2021/07/16 10:34:27;;;;;;;;;;;20.30;65.50;;;;;;482384;246;886;-43
2021/07/16 10:36:26;;;;;;;;;;;20.30;65.50;;;;;;481873;246;1743;-43
2021/07/16 10:38:27;;;;;;;;;;;20.30;65.60;;;;;;482009;246;1066;-44
2021/07/16 10:40:29;;;;;;;;;;;20.30;65.60;;;;;;482415;246;1179;-44
2021/07/16 10:42:30;;;;;;;;;;;20.30;65.60;;;;;;481893;246;1321;-44
2021/07/16 10:44:31;;;;;;;;;;;20.20;65.60;;;;;;482454;246;2197;-44
2021/07/16 10:46:33;;;;;;;;;;;20.30;65.70;;;;;;482432;246;1253;-43
2021/07/16 10:48:37;;;;;;;;;;;20.30;65.60;;;;;;482459;246;894;-43
2021/07/16 10:50:37;;;;;;;;;;;20.30;65.70;;;;;;482227;246;2010;-44
2021/07/16 10:52:38;;;;;;;;;;;20.30;65.60;;;;;;482325;246;1269;-43
2021/07/16 10:54:39;;;;;;;;;;;20.30;65.50;;;;;;482347;246;1071;-43
2021/07/16 10:56:41;;;;;;;;;;;20.30;65.60;;;;;;481866;246;1096;-44
2021/07/16 10:58:43;;;;;;;;;;;20.30;65.60;;;;;;481907;246;899;-44
2021/07/16 11:00:44;;;;;;;;;;;20.30;65.50;;;;;;482365;246;1138;-44
2021/07/16 11:02:45;;;;;;;;;;;20.30;65.40;;;;;;482327;246;886;-44
2021/07/16 11:04:47;;;;;;;;;;;20.30;65.60;;;;;;482260;246;2197;-44
2021/07/16 11:06:48;;;;;;;;;;;20.30;65.40;;;;;;481908;246;1202;-44
2021/07/16 11:08:50;;;;;;;;;;;20.30;65.50;;;;;;482392;246;939;-44
2021/07/16 11:10:51;;;;;;;;;;;20.30;65.50;;;;;;482330;246;1151;-44
2021/07/16 11:12:53;;;;;;;;;;;20.30;65.60;;;;;;482411;246;1371;-44
2021/07/16 11:14:54;;;;;;;;;;;20.30;65.60;;;;;;482453;246;856;-44
2021/07/16 11:16:55;;;;;;;;;;;20.30;65.50;;;;;;482356;246;1145;-44
2021/07/16 11:18:56;;;;;;;;;;;20.30;65.40;;;;;;482450;246;1269;-44
2021/07/16 11:20:58;;;;;;;;;;;20.30;65.40;;;;;;481994;246;1245;-44
2021/07/16 11:22:59;;;;;;;;;;;20.30;65.50;;;;;;481494;246;1221;-44
2021/07/16 11:25:01;;;;;;;;;;;20.30;65.50;;;;;;481451;246;2145;-44
2021/07/16 11:27:02;;;;;;;;;;;20.30;65.50;;;;;;481383;246;1337;-44
2021/07/16 11:29:03;;;;;;;;;;;20.30;65.50;;;;;;481411;246;1274;-44
2021/07/16 11:31:05;;;;;;;;;;;20.30;65.60;;;;;;481386;246;1325;-44
2021/07/16 11:33:06;;;;;;;;;;;20.30;65.40;;;;;;481386;246;1230;-44
2021/07/16 11:35:07;;;;;;;;;;;20.30;65.40;;;;;;481272;246;1175;-44
2021/07/16 11:37:09;;;;;;;;;;;20.30;65.50;;;;;;481701;246;1413;-43
2021/07/16 11:39:10;;;;;;;;;;;20.30;65.60;;;;;;481865;246;1255;-44
2021/07/16 11:41:11;;;;;;;;;;;20.30;65.60;;;;;;481667;246;1088;-44
2021/07/16 11:43:13;;;;;;;;;;;20.20;65.50;;;;;;481706;246;1146;-43
2021/07/16 11:45:14;;;;;;;;;;;20.30;65.60;;;;;;481781;246;2137;-44
2021/07/16 11:47:15;;;;;;;;;;;20.30;65.50;;;;;;481708;246;1195;-44
2021/07/16 11:49:17;;;;;;;;;;;20.30;65.60;;;;;;481742;246;1162;-44
2021/07/16 11:51:18;;;;;;;;;;;20.20;65.60;;;;;;481624;246;1246;-44
2021/07/16 11:53:19;;;;;;;;;;;20.30;65.60;;;;;;481615;246;1128;-44
2021/07/16 11:55:21;;;;;;;;;;;20.30;65.60;;;;;;481626;246;1192;-44
2021/07/16 11:57:22;;;;;;;;;;;20.30;65.50;;;;;;481617;246;1158;-44